createdAt,value
2018-03-03T00:01:09.565Z,61.78
2018-03-03T00:03:37.022Z,59.95
2018-03-03T00:06:04.470Z,61.72
2018-03-03T00:08:31.931Z,59.85
2018-03-03T00:10:59.381Z,61.63
2018-03-03T00:13:26.886Z,60.70
2018-03-03T00:15:54.332Z,60.20
2018-03-03T00:18:22.559Z,61.90
2018-03-03T00:20:50.018Z,60.05
2018-03-03T00:23:17.481Z,58.25
2018-03-03T00:25:44.930Z,59.72
2018-03-03T00:28:12.393Z,56.95
2018-03-03T00:30:40.253Z,51.03
2018-03-03T00:33:08.101Z,57.28
2018-03-03T00:35:35.558Z,58.15
2018-03-03T00:38:03.026Z,60.15
2018-03-03T00:40:30.464Z,60.55
2018-03-03T00:42:57.932Z,60.63
2018-03-03T00:45:25.385Z,58.95
2018-03-03T00:47:53.096Z,59.90
2018-03-03T00:50:20.547Z,62.65
2018-03-03T00:52:48.025Z,62.50
2018-03-03T00:55:15.478Z,59.10
2018-03-03T00:57:42.943Z,61.15
2018-03-03T01:00:11.179Z,62.13
2018-03-03T01:02:38.640Z,59.08
2018-03-03T01:05:06.097Z,58.10
2018-03-03T01:07:33.557Z,55.45
2018-03-03T01:10:01.014Z,60.95
2018-03-03T01:12:28.496Z,59.97
2018-03-03T01:14:56.734Z,62.58
2018-03-03T01:17:24.194Z,65.47
2018-03-03T01:19:51.665Z,60.70
2018-03-03T01:22:19.120Z,62.65
2018-03-03T01:24:46.568Z,61.30
2018-03-03T01:27:14.027Z,56.63
2018-03-03T01:29:41.486Z,55.38
2018-03-03T01:32:08.934Z,52.08
2018-03-03T01:34:37.161Z,51.60
2018-03-03T01:37:05.053Z,52.38
2018-03-03T01:39:32.478Z,62.72
2018-03-03T01:41:59.946Z,60.10
2018-03-03T01:44:27.392Z,57.13
2018-03-03T01:46:54.873Z,56.08
2018-03-03T01:49:22.342Z,59.00
2018-03-03T01:51:49.816Z,56.83
2018-03-03T01:54:17.274Z,59.10
2018-03-03T01:56:44.732Z,57.35
2018-03-03T01:59:12.186Z,55.55
2018-03-03T02:01:39.649Z,58.90
2018-03-03T02:04:07.105Z,57.13
2018-03-03T02:06:34.554Z,59.70
2018-03-03T02:09:02.013Z,58.15
2018-03-03T02:11:29.504Z,58.10
2018-03-03T02:13:56.957Z,56.05
2018-03-03T02:16:24.418Z,53.78
2018-03-03T02:18:52.634Z,54.05
2018-03-03T02:21:20.100Z,57.92
2018-03-03T02:23:47.572Z,56.35
2018-03-03T02:26:15.035Z,53.72
2018-03-03T02:28:42.498Z,52.08
2018-03-03T02:31:09.973Z,47.80
2018-03-03T02:33:38.209Z,49.97
2018-03-03T02:36:05.682Z,49.92
2018-03-03T02:38:33.913Z,51.28
2018-03-03T02:41:01.378Z,55.38
2018-03-03T02:43:28.850Z,55.88
2018-03-03T02:45:56.311Z,55.78
2018-03-03T02:48:23.779Z,57.42
2018-03-03T02:50:51.241Z,57.00
2018-03-03T02:53:18.717Z,55.97
2018-03-03T02:55:46.198Z,57.95
2018-03-03T02:58:14.427Z,55.00
2018-03-03T03:00:41.897Z,56.10
2018-03-03T03:03:09.363Z,55.47
2018-03-03T03:05:36.817Z,56.72
2018-03-03T03:08:04.279Z,50.50
2018-03-03T03:10:31.763Z,52.25
2018-03-03T03:12:59.238Z,54.78
2018-03-03T03:15:26.710Z,54.03
2018-03-03T03:17:54.182Z,55.70
2018-03-03T03:20:21.640Z,54.00
2018-03-03T03:22:49.118Z,57.25
2018-03-03T03:25:17.469Z,53.28
2018-03-03T03:27:44.931Z,53.00
2018-03-03T03:30:12.392Z,52.15
2018-03-03T03:32:39.854Z,49.13
2018-03-03T03:35:07.319Z,48.95
2018-03-03T03:37:34.787Z,52.40
2018-03-03T03:40:02.630Z,50.45
2018-03-03T03:42:30.094Z,51.15
2018-03-03T03:44:57.548Z,53.87
2018-03-03T03:47:25.034Z,51.33
2018-03-03T03:49:53.250Z,54.00
2018-03-03T03:52:20.776Z,50.50
2018-03-03T03:54:49.008Z,50.00
2018-03-03T03:57:18.035Z,52.50
2018-03-03T03:59:46.268Z,53.42
2018-03-03T04:02:13.732Z,53.22
2018-03-03T04:04:41.227Z,52.17
2018-03-03T04:07:09.445Z,53.80
2018-03-03T04:09:36.908Z,49.75
2018-03-03T04:12:04.381Z,51.80
2018-03-03T04:14:31.860Z,51.72
2018-03-03T04:16:59.314Z,56.42
2018-03-03T04:19:26.771Z,53.42
2018-03-03T04:21:54.251Z,53.78
2018-03-03T04:24:22.478Z,51.95
2018-03-03T04:26:49.932Z,49.75
2018-03-03T04:29:17.398Z,48.92
2018-03-03T04:31:44.854Z,48.67
2018-03-03T04:34:12.305Z,45.30
2018-03-03T04:36:39.769Z,45.53
2018-03-03T04:39:07.233Z,45.63
2018-03-03T04:41:35.457Z,47.30
2018-03-03T04:44:03.690Z,49.85
2018-03-03T04:46:31.151Z,48.03
2018-03-03T04:48:58.618Z,48.42
2018-03-03T04:51:26.848Z,52.67
2018-03-03T04:53:54.321Z,51.58
2018-03-03T04:56:21.781Z,50.70
2018-03-03T04:58:52.215Z,49.90
2018-03-03T05:01:23.650Z,50.42
2018-03-03T05:06:55.931Z,46.10
2018-03-03T05:09:23.396Z,42.58
2018-03-03T05:11:51.241Z,47.62
2018-03-03T05:14:29.453Z,46.92
2018-03-03T05:17:02.657Z,44.75
2018-03-03T05:22:39.287Z,45.78
2018-03-03T05:25:12.473Z,43.55
2018-03-03T05:27:47.543Z,42.35
2018-03-03T05:33:38.165Z,42.17
2018-03-03T05:36:08.077Z,45.38
2018-03-03T05:38:41.374Z,45.55
2018-03-03T05:41:11.321Z,44.72
2018-03-03T05:46:54.869Z,46.97
2018-03-03T05:49:23.582Z,41.70
2018-03-03T05:51:56.599Z,43.05
2018-03-03T05:54:29.817Z,40.08
2018-03-03T05:57:03.765Z,41.70
2018-03-03T05:59:36.849Z,40.35
2018-03-03T06:02:10.032Z,38.30
2018-03-03T06:04:43.321Z,33.38
2018-03-03T06:07:20.702Z,47.75
2018-03-03T06:09:58.862Z,44.83
2018-03-03T06:12:26.322Z,42.88
2018-03-03T06:14:53.799Z,44.15
2018-03-03T06:17:21.263Z,46.37
2018-03-03T06:19:48.744Z,46.97
2018-03-03T06:22:16.219Z,48.20
2018-03-03T06:24:43.674Z,48.75
2018-03-03T06:27:11.141Z,48.30
2018-03-03T06:29:38.605Z,52.22
2018-03-03T06:32:06.829Z,42.97
2018-03-03T06:34:34.284Z,52.00
2018-03-03T06:37:01.745Z,47.13
2018-03-03T06:39:29.207Z,52.13
2018-03-03T06:41:56.661Z,48.83
2018-03-03T06:44:24.117Z,48.55
2018-03-03T06:46:51.591Z,50.08
2018-03-03T06:49:19.040Z,51.40
2018-03-03T06:51:46.508Z,50.58
2018-03-03T06:54:13.973Z,49.13
2018-03-03T06:56:41.438Z,45.92
2018-03-03T06:59:08.907Z,46.20
2018-03-03T07:01:37.127Z,52.22
2018-03-03T07:04:04.581Z,51.45
2018-03-03T07:06:32.046Z,51.22
2018-03-03T07:08:59.504Z,66.60
2018-03-03T07:11:26.974Z,64.85
2018-03-03T07:13:54.421Z,64.28
2018-03-03T07:16:21.890Z,63.38
2018-03-03T07:18:49.348Z,79.05
2018-03-03T07:21:16.821Z,67.00
2018-03-03T07:23:44.273Z,61.30
2018-03-03T07:26:11.736Z,61.10
2018-03-03T07:28:39.206Z,53.55
2018-03-03T07:31:06.675Z,53.10
2018-03-03T07:33:34.926Z,60.95
2018-03-03T07:36:02.396Z,57.78
2018-03-03T07:38:30.608Z,56.45
2018-03-03T07:40:58.074Z,49.72
2018-03-03T07:43:25.538Z,55.47
2018-03-03T07:45:53.002Z,54.85
2018-03-03T07:48:20.459Z,72.62
2018-03-03T07:50:47.926Z,64.78
2018-03-03T07:53:15.386Z,50.35
2018-03-03T07:55:42.841Z,47.75
2018-03-03T07:58:10.300Z,47.85
2018-03-03T08:00:37.751Z,41.70
2018-03-03T08:03:05.212Z,42.65
2018-03-03T08:05:32.675Z,44.08
2018-03-03T08:08:00.126Z,46.95
2018-03-03T08:10:27.577Z,50.55
2018-03-03T08:12:55.033Z,46.13
2018-03-03T08:15:22.482Z,41.63
2018-03-03T08:17:50.713Z,38.35
2018-03-03T08:20:18.177Z,40.55
2018-03-03T08:22:45.626Z,38.22
2018-03-03T08:25:13.866Z,35.65
2018-03-03T08:27:42.088Z,35.20
2018-03-03T08:30:09.551Z,32.03
2018-03-03T08:32:36.999Z,33.30
2018-03-03T08:35:04.454Z,29.58
2018-03-03T08:37:31.911Z,29.27
2018-03-03T08:39:59.360Z,32.17
2018-03-03T08:42:26.834Z,32.15
2018-03-03T08:44:54.284Z,26.55
2018-03-03T08:47:21.747Z,30.33
2018-03-03T08:49:49.963Z,30.37
2018-03-03T08:52:17.418Z,28.58
2018-03-03T08:54:44.893Z,29.02
2018-03-03T08:57:12.738Z,29.27
2018-03-03T08:59:40.998Z,27.85
2018-03-03T09:02:08.448Z,25.25
2018-03-03T09:04:35.960Z,25.30
2018-03-03T09:07:03.365Z,24.05
2018-03-03T09:09:30.822Z,25.62
2018-03-03T09:11:58.270Z,25.42
2018-03-03T09:14:25.740Z,26.10
2018-03-03T09:16:53.191Z,31.75
2018-03-03T09:19:20.653Z,34.88
2018-03-03T09:21:48.110Z,35.65
2018-03-03T09:24:15.568Z,34.40
2018-03-03T09:26:43.033Z,30.40
2018-03-03T09:29:10.498Z,23.52
2018-03-03T09:31:37.965Z,16.75
2018-03-03T09:34:05.432Z,17.30
2018-03-03T09:36:32.890Z,15.18
2018-03-03T09:39:01.118Z,17.20
2018-03-03T09:41:28.586Z,14.97
2018-03-03T09:43:56.057Z,17.50
2018-03-03T09:46:23.525Z,16.80
2018-03-03T09:48:50.991Z,15.70
2018-03-03T09:51:18.450Z,66.70
2018-03-03T09:53:46.663Z,24.93
2018-03-03T09:56:14.126Z,17.30
2018-03-03T09:58:41.642Z,12.63
2018-03-03T10:01:09.874Z,12.43
2018-03-03T10:03:37.306Z,11.80
2018-03-03T10:06:05.065Z,13.57
2018-03-03T10:08:32.559Z,13.07
2018-03-03T10:11:00.099Z,13.70
2018-03-03T10:13:27.666Z,12.40
2018-03-03T10:15:55.197Z,12.23
2018-03-03T10:18:22.684Z,12.87
2018-03-03T10:20:50.190Z,12.50
2018-03-03T10:23:17.593Z,12.07
2018-03-03T10:25:45.051Z,10.93
2018-03-03T10:28:12.494Z,11.87
2018-03-03T10:30:39.954Z,12.00
2018-03-03T10:33:07.460Z,10.43
2018-03-03T10:35:34.860Z,10.60
2018-03-03T10:38:02.313Z,10.10
2018-03-03T10:40:29.770Z,8.37
2018-03-03T10:42:57.231Z,11.60
2018-03-03T10:45:24.724Z,9.23
2018-03-03T10:47:52.215Z,10.60
2018-03-03T10:50:19.768Z,8.67
2018-03-03T10:52:48.199Z,10.70
2018-03-03T10:55:15.752Z,9.73
2018-03-03T10:57:43.220Z,10.63
2018-03-03T11:00:10.847Z,9.87
2018-03-03T11:02:39.076Z,7.00
2018-03-03T11:05:06.881Z,5.90
2018-03-03T11:07:34.531Z,6.07
2018-03-03T11:10:02.758Z,6.37
2018-03-03T11:12:30.986Z,6.77
2018-03-03T11:14:59.222Z,8.83
2018-03-03T11:17:26.691Z,8.50
2018-03-03T11:19:54.178Z,9.60
2018-03-03T11:22:21.657Z,11.33
2018-03-03T11:24:49.101Z,11.30
2018-03-03T11:27:16.549Z,19.27
2018-03-03T11:29:44.013Z,20.57
2018-03-03T11:32:11.466Z,20.43
2018-03-03T11:34:38.932Z,22.33
2018-03-03T11:37:06.390Z,20.70
2018-03-03T11:39:33.847Z,21.40
2018-03-03T11:42:01.288Z,22.57
2018-03-03T11:44:28.752Z,21.73
2018-03-03T11:46:56.840Z,22.03
2018-03-03T11:49:24.326Z,19.13
2018-03-03T11:51:51.777Z,22.13
2018-03-03T11:54:19.245Z,20.70
2018-03-03T11:56:46.709Z,22.30
2018-03-03T11:59:14.188Z,19.73
2018-03-03T12:01:42.635Z,20.07
2018-03-03T12:04:10.134Z,19.37
2018-03-03T12:06:38.357Z,19.93
2018-03-03T12:09:06.624Z,20.07
2018-03-03T12:11:34.103Z,20.23
2018-03-03T12:14:03.119Z,21.10
2018-03-03T12:16:31.572Z,22.10
2018-03-03T12:18:59.083Z,22.60
2018-03-03T12:21:26.665Z,23.27
2018-03-03T12:23:54.122Z,24.60
2018-03-03T12:26:21.590Z,23.50
2018-03-03T12:28:49.055Z,26.40
2018-03-03T12:31:16.510Z,23.80
2018-03-03T12:33:43.969Z,25.20
2018-03-03T12:36:11.432Z,26.67
2018-03-03T12:38:38.890Z,26.63
2018-03-03T12:41:06.345Z,27.30
2018-03-03T12:43:33.807Z,26.33
2018-03-03T12:46:01.261Z,26.70
2018-03-03T12:48:28.722Z,27.40
2018-03-03T12:50:56.178Z,24.80
2018-03-03T12:53:23.640Z,26.50
2018-03-03T12:55:51.093Z,27.10
2018-03-03T12:58:18.554Z,27.23
2018-03-03T13:00:46.031Z,25.90
2018-03-03T13:03:14.255Z,27.83
2018-03-03T13:05:41.721Z,26.87
2018-03-03T13:08:09.581Z,26.73
2018-03-03T13:10:37.462Z,29.27
2018-03-03T13:13:05.016Z,28.10
2018-03-03T13:15:33.024Z,32.53
2018-03-03T13:18:01.616Z,30.07
2018-03-03T13:20:29.555Z,32.00
2018-03-03T13:22:57.077Z,32.30
2018-03-03T13:25:24.892Z,30.00
2018-03-03T13:27:52.421Z,32.10
2018-03-03T13:30:19.877Z,31.20
2018-03-03T13:32:47.337Z,33.03
2018-03-03T13:35:14.895Z,33.03
2018-03-03T13:37:42.445Z,31.90
2018-03-03T13:40:09.897Z,33.80
2018-03-03T13:42:37.352Z,34.90
2018-03-03T13:45:04.812Z,35.90
2018-03-03T13:47:32.281Z,34.97
2018-03-03T13:49:59.738Z,34.53
2018-03-03T13:52:27.208Z,35.30
2018-03-03T13:54:54.666Z,33.53
2018-03-03T13:57:22.587Z,37.30
2018-03-03T13:59:50.047Z,35.70
2018-03-03T14:02:17.502Z,37.30
2018-03-03T14:04:44.954Z,33.87
2018-03-03T14:07:12.406Z,37.87
2018-03-03T14:09:39.861Z,35.87
2018-03-03T14:12:07.713Z,37.23
2018-03-03T14:14:35.973Z,37.20
2018-03-03T14:17:04.201Z,40.00
2018-03-03T14:19:31.657Z,41.20
2018-03-03T14:21:59.121Z,39.00
2018-03-03T14:24:26.577Z,39.13
2018-03-03T14:26:54.038Z,42.60
2018-03-03T14:29:21.487Z,42.20
2018-03-03T14:31:48.945Z,42.00
2018-03-03T14:34:16.405Z,41.70
2018-03-03T14:36:43.859Z,42.23
2018-03-03T14:39:11.317Z,42.73
2018-03-03T14:41:38.777Z,42.90
2018-03-03T14:44:06.227Z,43.07
2018-03-03T14:46:33.689Z,44.93
2018-03-03T14:49:01.165Z,44.57
2018-03-03T14:51:28.619Z,45.63
2018-03-03T14:53:56.082Z,45.90
2018-03-03T14:56:24.310Z,44.33
2018-03-03T14:58:51.787Z,46.90
2018-03-03T15:01:19.238Z,49.60
2018-03-03T15:03:46.710Z,47.47
2018-03-03T15:06:14.161Z,47.30
2018-03-03T15:08:41.609Z,43.97
2018-03-03T15:11:09.484Z,44.10
2018-03-03T15:13:36.974Z,46.10
2018-03-03T15:16:04.806Z,47.90
2018-03-03T15:18:33.058Z,48.60
2018-03-03T15:21:00.534Z,45.87
2018-03-03T15:23:27.996Z,45.40
2018-03-03T15:25:55.466Z,45.70
2018-03-03T15:28:22.933Z,44.20
2018-03-03T15:30:50.400Z,45.37
2018-03-03T15:33:17.857Z,47.77
2018-03-03T15:35:45.355Z,46.70
2018-03-03T15:38:12.772Z,47.53
2018-03-03T15:40:40.236Z,43.50
2018-03-03T15:43:08.469Z,42.23
2018-03-03T15:45:35.921Z,47.37
2018-03-03T15:48:03.404Z,42.30
2018-03-03T15:50:30.853Z,43.03
2018-03-03T15:52:59.072Z,42.60
2018-03-03T15:55:27.284Z,44.47
2018-03-03T15:57:54.735Z,41.90
2018-03-03T16:00:22.188Z,41.80
2018-03-03T16:02:49.642Z,34.53
2018-03-03T16:05:17.088Z,40.40
2018-03-03T16:07:44.548Z,38.37
2018-03-03T16:10:12.002Z,37.97
2018-03-03T16:12:39.859Z,36.70
2018-03-03T16:15:07.300Z,42.20
2018-03-03T16:17:35.530Z,42.20
2018-03-03T16:20:03.754Z,40.80
2018-03-03T16:22:31.979Z,40.17
2018-03-03T16:24:59.438Z,40.93
2018-03-03T16:27:26.901Z,41.07
2018-03-03T16:29:54.353Z,41.57
2018-03-03T16:32:21.813Z,42.70
2018-03-03T16:34:49.255Z,44.53
2018-03-03T16:37:16.745Z,40.97
2018-03-03T16:39:44.206Z,46.67
2018-03-03T16:42:13.133Z,45.20
2018-03-03T16:44:40.585Z,44.37
2018-03-03T16:47:08.068Z,43.10
2018-03-03T16:49:35.524Z,44.03
2018-03-03T16:52:03.004Z,45.53
2018-03-03T16:54:30.470Z,44.87
2018-03-03T16:56:57.945Z,45.73
2018-03-03T16:59:25.401Z,42.57
2018-03-03T17:01:52.869Z,44.90
2018-03-03T17:04:20.312Z,43.00
2018-03-03T17:06:47.779Z,45.50
2018-03-03T17:09:15.230Z,45.20
2018-03-03T17:11:42.686Z,42.43
2018-03-03T17:14:10.532Z,39.67
2018-03-03T17:16:37.984Z,43.60
2018-03-03T17:19:06.972Z,45.57
2018-03-03T17:21:34.430Z,47.47
2018-03-03T17:24:01.904Z,46.10
2018-03-03T17:26:29.390Z,45.80
2018-03-03T17:28:57.614Z,47.40
2018-03-03T17:31:25.090Z,50.53
2018-03-03T17:33:52.541Z,57.20
2018-03-03T17:36:20.010Z,56.60
2018-03-03T17:38:47.465Z,60.30
2018-03-03T17:41:14.936Z,53.22
2018-03-03T17:43:42.402Z,54.70
2018-03-03T17:46:10.637Z,53.97
2018-03-03T17:48:38.097Z,53.42
2018-03-03T17:51:05.558Z,56.33
2018-03-03T17:53:33.026Z,52.33
2018-03-03T17:56:00.481Z,53.90
2018-03-03T17:58:27.949Z,56.90
2018-03-03T18:00:56.189Z,58.58
2018-03-03T18:03:23.657Z,73.60
2018-03-03T18:05:51.118Z,62.83
2018-03-03T18:08:18.593Z,61.83
2018-03-03T18:10:46.823Z,59.80
2018-03-03T18:13:16.735Z,54.45
2018-03-03T18:15:44.178Z,60.17
2018-03-03T18:18:11.650Z,56.63
2018-03-03T18:20:39.126Z,59.55
2018-03-03T18:23:08.114Z,58.83
2018-03-03T18:25:35.965Z,56.42
2018-03-03T18:28:03.442Z,57.30
2018-03-03T18:30:31.670Z,57.15
2018-03-03T18:32:59.181Z,61.25
2018-03-03T18:35:26.645Z,55.12
2018-03-03T18:37:54.125Z,59.63
2018-03-03T18:40:22.359Z,58.25
2018-03-03T18:42:49.848Z,57.10
2018-03-03T18:45:17.314Z,62.72
2018-03-03T18:47:44.902Z,59.22
2018-03-03T18:50:12.378Z,64.10
2018-03-03T18:52:40.129Z,58.90
2018-03-03T18:55:07.583Z,56.00
2018-03-03T18:57:35.052Z,60.65
2018-03-03T19:00:02.512Z,55.15
2018-03-03T19:02:29.971Z,53.65
2018-03-03T19:04:58.189Z,57.00
2018-03-03T19:07:26.413Z,52.85
2018-03-03T19:09:53.876Z,51.10
2018-03-03T19:12:21.341Z,49.65
2018-03-03T19:14:48.854Z,49.35
2018-03-03T19:17:16.858Z,52.62
2018-03-03T19:19:44.318Z,46.55
2018-03-03T19:22:11.769Z,48.92
2018-03-03T19:24:39.654Z,54.22
2018-03-03T19:27:07.842Z,56.60
2018-03-03T19:29:36.194Z,56.63
2018-03-03T19:32:03.671Z,53.33
2018-03-03T19:34:31.146Z,52.92
2018-03-03T19:36:58.856Z,54.58
2018-03-03T19:39:26.301Z,54.53
2018-03-03T19:41:53.766Z,56.75
2018-03-03T19:44:21.240Z,55.22
2018-03-03T19:46:48.710Z,54.63
2018-03-03T19:49:16.165Z,58.75
2018-03-03T19:51:43.629Z,60.47
2018-03-03T19:54:11.082Z,60.55
2018-03-03T19:56:38.541Z,57.47
2018-03-03T19:59:06.759Z,57.33
2018-03-03T20:01:34.230Z,55.85
2018-03-03T20:04:01.694Z,57.58
2018-03-03T20:06:29.144Z,57.60
2018-03-03T20:08:56.606Z,54.50
2018-03-03T20:11:24.048Z,53.50
2018-03-03T20:13:51.509Z,52.78
2018-03-03T20:16:18.967Z,56.08
2018-03-03T20:18:46.428Z,50.28
2018-03-03T20:21:13.884Z,49.28
2018-03-03T20:23:42.108Z,53.20
2018-03-03T20:26:09.969Z,54.33
2018-03-03T20:28:37.433Z,60.70
2018-03-03T20:31:04.894Z,56.50
2018-03-03T20:33:32.348Z,58.70
2018-03-03T20:35:59.810Z,58.75
2018-03-03T20:38:27.261Z,59.83
2018-03-03T20:40:54.713Z,61.37
2018-03-03T20:43:22.182Z,58.78
2018-03-03T20:45:49.645Z,65.03
2018-03-03T20:48:17.141Z,66.78
2018-03-03T20:50:44.589Z,66.45
2018-03-03T20:53:12.046Z,65.75
2018-03-03T20:55:39.508Z,73.28
2018-03-03T20:58:06.956Z,61.00
2018-03-03T21:00:34.413Z,64.20
2018-03-03T21:03:01.880Z,61.10
2018-03-03T21:05:29.328Z,61.55
2018-03-03T21:07:56.779Z,64.62
2018-03-03T21:10:24.237Z,68.43
2018-03-03T21:12:51.708Z,66.43
2018-03-03T21:15:19.156Z,67.43
2018-03-03T21:17:46.632Z,66.32
2018-03-03T21:20:14.096Z,57.40
2018-03-03T21:22:41.564Z,57.70
2018-03-03T21:25:09.032Z,57.03
2018-03-03T21:27:36.490Z,70.22
2018-03-03T21:30:03.954Z,69.60
2018-03-03T21:32:31.414Z,75.00
2018-03-03T21:34:58.866Z,67.87
2018-03-03T21:37:26.324Z,60.17
2018-03-03T21:39:53.812Z,59.17
2018-03-03T21:42:21.260Z,59.15
2018-03-03T21:44:49.493Z,59.05
2018-03-03T21:47:17.244Z,59.97
2018-03-03T21:49:44.694Z,63.50
2018-03-03T21:52:12.150Z,64.10
2018-03-03T21:54:39.621Z,67.37
2018-03-03T21:57:07.080Z,72.03
2018-03-03T21:59:34.557Z,66.90
2018-03-03T22:02:02.011Z,65.75
2018-03-03T22:04:29.481Z,66.57
2018-03-03T22:06:56.929Z,64.43
2018-03-03T22:09:24.384Z,58.58
2018-03-03T22:11:51.853Z,65.37
2018-03-03T22:14:19.310Z,67.43
2018-03-03T22:16:47.525Z,68.78
2018-03-03T22:19:14.984Z,68.55
2018-03-03T22:21:42.445Z,67.85
2018-03-03T22:24:09.901Z,74.12
2018-03-03T22:26:38.126Z,73.80
2018-03-03T22:29:05.980Z,84.30
2018-03-03T22:31:33.461Z,82.57
2018-03-03T22:34:01.685Z,79.07
2018-03-03T22:36:29.174Z,78.05
2018-03-03T22:38:56.647Z,80.28
2018-03-03T22:41:24.878Z,77.72
2018-03-03T22:43:52.373Z,79.55
2018-03-03T22:46:19.839Z,81.78
2018-03-03T22:48:47.325Z,80.00
2018-03-03T22:51:14.790Z,83.78
2018-03-03T22:53:42.250Z,86.25
2018-03-03T22:56:09.714Z,87.50
2018-03-03T22:58:37.168Z,85.45
2018-03-03T23:01:04.621Z,88.53
2018-03-03T23:03:32.087Z,85.97
2018-03-03T23:05:59.632Z,83.95
2018-03-03T23:08:27.042Z,87.53
2018-03-03T23:10:54.504Z,86.65
2018-03-03T23:13:22.726Z,82.60
2018-03-03T23:15:50.196Z,87.32
2018-03-03T23:18:17.647Z,83.85
2018-03-03T23:20:45.110Z,84.13
2018-03-03T23:23:12.574Z,79.28
2018-03-03T23:25:40.051Z,81.07
2018-03-03T23:28:07.514Z,81.30
2018-03-03T23:30:34.969Z,83.80
2018-03-03T23:33:02.440Z,86.78
2018-03-03T23:35:29.907Z,81.50
2018-03-03T23:37:58.146Z,83.72
2018-03-03T23:40:25.601Z,84.85
2018-03-03T23:42:53.062Z,77.07
2018-03-03T23:45:20.547Z,74.80
2018-03-03T23:47:48.778Z,71.25
2018-03-03T23:50:17.003Z,79.30
2018-03-03T23:52:45.227Z,77.20
2018-03-03T23:55:12.706Z,69.07
2018-03-03T23:57:40.163Z,71.28
